Wejh, Saudi Arabia
Current Conditions -  °F | °C
As of 9:00 PM on Monday 20 Oct 2014 (Local Time) from OEWJ Reporting Station
Clear Clear  
Wind Chill: 81°   Ceiling: Unl
Heat Index: 82°   Visibility: 6mi
Dew Point: 64°   Wind: 7mph
Humidity: 58%   Direction: 340°NNW
Pressure: 29.85"   Gusts: NA
Location:  26.2°N, 36.48°E
Report Text: OEWJ 201800Z 34006KT CAVOK 27/18 Q1011 NOSIG
Loading
Personal Weather Stations






























Interactive Weather Map
Tropical Storm Tracking
New forecast layout! Learn more

10-Day Weather Forecast

Advertisements
Track Severe Weather on mobile